createdAt,value
2018-06-15T00:00:10.213Z,3.90
2018-06-15T00:02:38.377Z,2.93
2018-06-15T00:05:06.551Z,4.17
2018-06-15T00:07:34.773Z,3.20
2018-06-15T00:10:02.984Z,3.00
2018-06-15T00:12:31.177Z,2.33
2018-06-15T00:14:59.104Z,2.30
2018-06-15T00:17:27.325Z,2.40
2018-06-15T00:19:55.603Z,2.30
2018-06-15T00:22:23.828Z,3.10
2018-06-15T00:24:52.043Z,2.30
2018-06-15T00:27:20.220Z,2.17
2018-06-15T00:29:48.397Z,2.30
2018-06-15T00:32:16.563Z,2.70
2018-06-15T00:34:44.727Z,3.37
2018-06-15T00:37:12.912Z,3.00
2018-06-15T00:39:41.059Z,5.53
2018-06-15T00:42:09.225Z,4.40
2018-06-15T00:44:37.869Z,3.90
2018-06-15T00:47:06.124Z,3.40
2018-06-15T00:49:34.385Z,3.50
2018-06-15T00:52:02.578Z,3.37
2018-06-15T00:54:30.738Z,4.13
2018-06-15T00:57:10.517Z,3.77
2018-06-15T00:59:44.207Z,3.10
2018-06-15T01:02:12.364Z,2.60
2018-06-15T01:04:40.564Z,2.20
2018-06-15T01:07:08.732Z,2.20
2018-06-15T01:09:36.908Z,3.77
2018-06-15T01:12:05.413Z,2.90
2018-06-15T01:14:33.735Z,3.30
2018-06-15T01:17:02.013Z,3.30
2018-06-15T01:19:30.253Z,2.40
2018-06-15T01:21:58.436Z,2.47
2018-06-15T01:24:26.588Z,2.67
2018-06-15T01:26:54.733Z,2.20
2018-06-15T01:29:22.973Z,2.63
2018-06-15T01:31:51.134Z,2.10
2018-06-15T01:34:19.389Z,3.07
2018-06-15T01:36:47.991Z,3.13
2018-06-15T01:39:16.132Z,2.60
2018-06-15T01:41:44.285Z,3.33
2018-06-15T01:44:12.521Z,2.63
2018-06-15T01:46:40.733Z,2.23
2018-06-15T01:49:08.881Z,2.77
2018-06-15T01:51:37.024Z,3.37
2018-06-15T01:54:05.206Z,3.27
2018-06-15T01:56:33.436Z,3.43
2018-06-15T01:59:01.654Z,3.00
2018-06-15T02:01:29.830Z,3.27
2018-06-15T02:03:58.054Z,3.57
2018-06-15T02:06:26.246Z,3.20
2018-06-15T02:08:54.441Z,2.90
2018-06-15T02:11:24.372Z,2.50
2018-06-15T02:13:52.571Z,3.40
2018-06-15T02:16:20.724Z,2.73
2018-06-15T02:18:48.658Z,2.40
2018-06-15T02:21:16.828Z,2.80
2018-06-15T02:23:45.030Z,3.50
2018-06-15T02:26:13.288Z,3.27
2018-06-15T02:28:41.440Z,3.20
2018-06-15T02:31:09.608Z,3.53
2018-06-15T02:33:37.760Z,3.17
2018-06-15T02:36:06.017Z,2.90
2018-06-15T02:38:34.159Z,3.00
2018-06-15T02:41:02.313Z,2.33
2018-06-15T02:43:30.468Z,2.00
2018-06-15T02:45:58.733Z,2.77
2018-06-15T02:48:26.880Z,2.73
2018-06-15T02:50:55.117Z,2.93
2018-06-15T02:53:23.339Z,3.00
2018-06-15T02:55:51.508Z,2.77
2018-06-15T02:58:19.681Z,2.90
2018-06-15T03:00:47.838Z,2.60
2018-06-15T03:03:15.989Z,3.60
2018-06-15T03:05:44.172Z,4.23
2018-06-15T03:08:12.400Z,3.67
2018-06-15T03:10:40.777Z,3.23
2018-06-15T03:13:08.937Z,2.50
2018-06-15T03:15:37.109Z,4.00
2018-06-15T03:18:05.966Z,3.00
2018-06-15T03:20:34.231Z,3.53
2018-06-15T03:23:02.665Z,2.60
2018-06-15T03:25:30.832Z,3.60
2018-06-15T03:27:58.979Z,3.77
2018-06-15T03:30:27.139Z,3.00
2018-06-15T03:32:55.400Z,2.40
2018-06-15T03:35:23.640Z,2.30
2018-06-15T03:37:51.813Z,2.27
2018-06-15T03:40:19.967Z,3.43
2018-06-15T03:42:48.324Z,3.00
2018-06-15T03:45:16.492Z,2.53
2018-06-15T03:47:44.685Z,3.10
2018-06-15T03:50:13.017Z,3.57
2018-06-15T03:52:41.184Z,3.50
2018-06-15T03:55:09.938Z,3.07
2018-06-15T03:57:38.169Z,3.60
2018-06-15T04:00:06.610Z,3.77
2018-06-15T04:02:34.757Z,3.20
2018-06-15T04:05:02.912Z,3.67
2018-06-15T04:07:31.297Z,2.80
2018-06-15T04:09:59.443Z,3.30
2018-06-15T04:12:27.601Z,2.40
2018-06-15T04:14:55.836Z,2.40
2018-06-15T04:17:24.180Z,2.40
2018-06-15T04:19:52.417Z,2.40
2018-06-15T04:22:20.640Z,2.53
2018-06-15T04:24:48.804Z,2.03
2018-06-15T04:27:17.034Z,3.00
2018-06-15T04:29:45.282Z,2.20
2018-06-15T04:32:13.427Z,2.40
2018-06-15T04:34:41.589Z,3.03
2018-06-15T04:37:09.960Z,3.13
2018-06-15T04:39:38.108Z,2.03
2018-06-15T04:42:06.340Z,2.20
2018-06-15T04:44:34.489Z,2.70
2018-06-15T04:47:02.730Z,2.70
2018-06-15T04:49:30.875Z,3.30
2018-06-15T04:51:59.033Z,3.17
2018-06-15T04:54:27.189Z,3.73
2018-06-15T04:56:56.068Z,3.93
2018-06-15T04:59:24.312Z,3.77
2018-06-15T05:01:52.520Z,2.50
2018-06-15T05:04:20.684Z,3.03
2018-06-15T05:06:48.844Z,2.90
2018-06-15T05:09:17.048Z,2.70
2018-06-15T05:11:45.160Z,4.47
2018-06-15T05:14:13.408Z,3.10
2018-06-15T05:16:41.698Z,3.83
2018-06-15T05:19:09.849Z,3.97
2018-06-15T05:21:38.066Z,3.90
2018-06-15T05:24:06.406Z,3.40
2018-06-15T05:26:34.600Z,2.97
2018-06-15T05:29:02.773Z,3.40
2018-06-15T05:31:30.979Z,3.57
2018-06-15T05:33:59.224Z,3.80
2018-06-15T05:36:27.372Z,5.00
2018-06-15T05:38:55.547Z,3.40
2018-06-15T05:41:23.721Z,5.07
2018-06-15T05:43:51.898Z,4.80
2018-06-15T05:46:20.079Z,4.43
2018-06-15T05:48:48.229Z,4.33
2018-06-15T05:51:16.373Z,5.00
2018-06-15T05:53:44.560Z,4.80
2018-06-15T05:56:12.725Z,4.67
2018-06-15T05:58:40.893Z,4.20
2018-06-15T06:01:09.048Z,4.50
2018-06-15T06:03:37.224Z,5.33
2018-06-15T06:06:05.382Z,5.93
2018-06-15T06:08:33.549Z,3.90
2018-06-15T06:11:01.696Z,4.87
2018-06-15T06:13:29.854Z,4.43
2018-06-15T06:15:58.007Z,5.17
2018-06-15T06:18:26.168Z,4.53
2018-06-15T06:20:54.337Z,4.33
2018-06-15T06:23:22.519Z,5.43
2018-06-15T06:25:50.680Z,5.70
2018-06-15T06:28:18.831Z,4.83
2018-06-15T06:30:46.981Z,5.70
2018-06-15T06:33:15.385Z,5.50
2018-06-15T06:35:43.651Z,4.53
2018-06-15T06:38:12.072Z,3.90
2018-06-15T06:40:40.225Z,5.20
2018-06-15T06:43:08.382Z,4.17
2018-06-15T06:45:36.546Z,4.40
2018-06-15T06:48:04.708Z,2.93
2018-06-15T06:50:32.914Z,3.30
2018-06-15T06:53:01.013Z,3.37
2018-06-15T06:55:29.320Z,3.60
2018-06-15T06:57:57.556Z,5.03
2018-06-15T07:00:25.714Z,4.63
2018-06-15T07:02:53.865Z,5.03
2018-06-15T07:05:22.248Z,4.03
2018-06-15T07:07:50.400Z,4.20
2018-06-15T07:10:18.544Z,3.77
2018-06-15T07:12:46.840Z,3.17
2018-06-15T07:15:15.107Z,2.97
2018-06-15T07:17:43.364Z,2.70
2018-06-15T07:20:11.686Z,3.30
2018-06-15T07:22:39.857Z,2.87
2018-06-15T07:25:08.009Z,2.90
2018-06-15T07:27:36.188Z,2.33
2018-06-15T07:30:04.465Z,2.70
2018-06-15T07:32:32.640Z,2.93
2018-06-15T07:35:00.797Z,3.70
2018-06-15T07:37:28.940Z,3.90
2018-06-15T07:39:57.093Z,2.80
2018-06-15T07:42:25.271Z,2.37
2018-06-15T07:44:53.487Z,2.30
2018-06-15T07:47:21.633Z,2.73
2018-06-15T07:49:49.809Z,3.20
2018-06-15T07:52:17.951Z,2.73
2018-06-15T07:54:46.129Z,2.80
2018-06-15T07:57:14.291Z,3.00
2018-06-15T07:59:42.476Z,3.20
2018-06-15T08:02:11.464Z,3.53
2018-06-15T08:04:39.994Z,3.50
2018-06-15T08:07:08.189Z,3.67
2018-06-15T08:09:36.336Z,2.73
2018-06-15T08:12:04.591Z,3.53
2018-06-15T08:14:32.763Z,3.23
2018-06-15T08:17:00.913Z,2.70
2018-06-15T08:19:29.145Z,2.50
2018-06-15T08:21:57.885Z,2.60
2018-06-15T08:24:26.049Z,2.60
2018-06-15T08:26:54.213Z,2.60
2018-06-15T08:29:22.364Z,2.27
2018-06-15T08:31:50.512Z,2.60
2018-06-15T08:34:18.676Z,1.90
2018-06-15T08:36:46.817Z,2.10
2018-06-15T08:39:14.987Z,2.20
2018-06-15T08:41:43.133Z,2.70
2018-06-15T08:44:11.292Z,3.50
2018-06-15T08:46:39.511Z,3.33
2018-06-15T08:49:07.665Z,2.60
2018-06-15T08:51:35.796Z,3.10
2018-06-15T08:54:03.944Z,2.47
2018-06-15T08:56:32.097Z,2.10
2018-06-15T08:59:00.356Z,2.40
2018-06-15T09:01:28.499Z,2.17
2018-06-15T09:03:56.656Z,1.90
2018-06-15T09:06:24.800Z,1.80
2018-06-15T09:08:53.237Z,1.50
2018-06-15T09:11:21.411Z,1.53
2018-06-15T09:13:49.575Z,1.80
2018-06-15T09:16:17.737Z,1.87
2018-06-15T09:18:45.887Z,1.50
2018-06-15T09:21:14.036Z,1.43
2018-06-15T09:23:42.208Z,2.00
2018-06-15T09:26:10.342Z,1.73
2018-06-15T09:28:38.537Z,1.93
2018-06-15T09:31:06.691Z,2.07
2018-06-15T09:33:34.852Z,2.30
2018-06-15T09:36:02.997Z,1.80
2018-06-15T09:38:31.137Z,2.00
2018-06-15T09:40:59.285Z,1.70
2018-06-15T09:43:27.433Z,1.90
2018-06-15T09:45:55.583Z,1.80
2018-06-15T09:48:23.716Z,1.70
2018-06-15T09:50:51.881Z,1.83
2018-06-15T09:53:20.032Z,1.87
2018-06-15T09:55:48.192Z,2.00
2018-06-15T09:58:16.345Z,2.03
2018-06-15T10:00:51.052Z,1.73
2018-06-15T10:03:19.216Z,1.80
2018-06-15T10:05:47.374Z,1.83
2018-06-15T10:08:15.545Z,1.80
2018-06-15T10:10:43.718Z,1.50
2018-06-15T10:13:12.213Z,1.60
2018-06-15T10:15:41.450Z,1.50
2018-06-15T10:18:09.710Z,1.60
2018-06-15T10:20:38.133Z,1.60
2018-06-15T10:23:06.309Z,1.40
2018-06-15T10:25:34.982Z,1.70
2018-06-15T10:28:03.124Z,1.20
2018-06-15T10:30:31.277Z,1.20
2018-06-15T10:32:59.549Z,1.20
2018-06-15T10:35:27.764Z,1.20
2018-06-15T10:37:55.925Z,1.60
2018-06-15T10:40:24.190Z,1.40
2018-06-15T10:42:52.324Z,1.47
2018-06-15T10:45:20.644Z,1.13
2018-06-15T10:47:48.817Z,1.20
2018-06-15T10:50:16.961Z,1.20
2018-06-15T10:52:46.132Z,1.20
2018-06-15T10:55:14.347Z,1.40
2018-06-15T10:57:42.604Z,1.43
2018-06-15T11:00:10.754Z,1.40
2018-06-15T11:02:38.896Z,1.50
2018-06-15T11:05:07.242Z,1.10
2018-06-15T11:07:35.394Z,1.50
2018-06-15T11:10:03.544Z,1.53
2018-06-15T11:12:31.939Z,1.63
2018-06-15T11:15:00.105Z,2.00
2018-06-15T11:17:28.260Z,1.77
2018-06-15T11:19:56.451Z,1.67
2018-06-15T11:22:24.568Z,1.50
2018-06-15T11:24:53.053Z,1.23
2018-06-15T11:27:21.191Z,1.70
2018-06-15T11:29:49.340Z,1.50
2018-06-15T11:32:17.527Z,1.80
2018-06-15T11:34:45.668Z,1.93
2018-06-15T11:37:13.818Z,1.83
2018-06-15T11:39:41.977Z,1.33
2018-06-15T11:42:10.127Z,1.37
2018-06-15T11:44:38.269Z,1.53
2018-06-15T11:47:06.429Z,1.40
2018-06-15T11:49:34.656Z,1.77
2018-06-15T11:52:02.810Z,1.60
2018-06-15T11:54:30.956Z,1.93
2018-06-15T11:56:59.112Z,1.93
2018-06-15T11:59:27.253Z,1.70
2018-06-15T12:01:55.664Z,1.40
2018-06-15T12:04:23.816Z,1.70
2018-06-15T12:06:51.962Z,1.90
2018-06-15T12:09:20.104Z,1.80
2018-06-15T12:11:48.266Z,1.80
2018-06-15T12:14:16.411Z,1.87
2018-06-15T12:16:44.565Z,1.73
2018-06-15T12:19:12.717Z,1.70
2018-06-15T12:21:40.862Z,1.83
2018-06-15T12:24:09.005Z,1.50
2018-06-15T12:26:37.417Z,1.80
2018-06-15T12:29:05.580Z,1.77
2018-06-15T12:31:33.733Z,1.67
2018-06-15T12:34:01.884Z,1.50
2018-06-15T12:36:30.028Z,1.60
2018-06-15T12:38:58.159Z,1.50
2018-06-15T12:41:26.304Z,2.00
2018-06-15T12:43:54.468Z,1.57
2018-06-15T12:46:22.616Z,1.40
2018-06-15T12:48:50.868Z,1.77
2018-06-15T12:51:19.020Z,1.53
2018-06-15T12:53:47.156Z,1.70
2018-06-15T12:56:15.304Z,1.70
2018-06-15T12:58:43.457Z,1.50
2018-06-15T13:01:11.600Z,1.50
2018-06-15T13:03:39.511Z,1.57
2018-06-15T13:06:07.748Z,1.60
2018-06-15T13:08:36.077Z,1.60
2018-06-15T13:11:04.241Z,2.07
2018-06-15T13:13:32.481Z,1.57
2018-06-15T13:16:00.657Z,1.63
2018-06-15T13:18:28.817Z,1.90
2018-06-15T13:20:57.058Z,1.90
2018-06-15T13:23:25.672Z,1.50
2018-06-15T13:25:54.276Z,1.60
2018-06-15T13:28:22.584Z,1.77
2018-06-15T13:30:51.848Z,1.50
2018-06-15T13:33:20.531Z,1.40
2018-06-15T13:35:49.385Z,1.63
2018-06-15T13:38:17.562Z,1.53
2018-06-15T13:40:45.859Z,1.70
2018-06-15T13:43:14.031Z,1.87
2018-06-15T13:45:42.188Z,1.70
2018-06-15T13:48:10.332Z,2.10
2018-06-15T13:50:38.501Z,1.63
2018-06-15T13:53:06.646Z,1.80
2018-06-15T13:55:34.800Z,2.00
2018-06-15T13:58:03.017Z,2.10
2018-06-15T14:00:31.173Z,2.00
2018-06-15T14:02:59.098Z,2.00
2018-06-15T14:05:27.244Z,2.10
2018-06-15T14:07:55.396Z,1.87
2018-06-15T14:10:23.552Z,1.90
2018-06-15T14:12:52.081Z,1.90
2018-06-15T14:15:20.236Z,1.50
2018-06-15T14:17:48.680Z,1.97
2018-06-15T14:20:17.112Z,2.00
2018-06-15T14:22:45.276Z,2.10
2018-06-15T14:25:13.871Z,2.20
2018-06-15T14:27:42.025Z,2.13
2018-06-15T14:30:10.581Z,2.20
2018-06-15T14:32:39.368Z,1.83
2018-06-15T14:35:07.329Z,1.60
2018-06-15T14:37:35.522Z,1.70
2018-06-15T14:40:03.766Z,1.77
2018-06-15T14:42:32.025Z,2.10
2018-06-15T14:45:00.420Z,2.37
2018-06-15T14:47:28.815Z,2.37
2018-06-15T14:49:57.004Z,2.30
2018-06-15T14:52:25.290Z,2.20
2018-06-15T14:54:53.435Z,2.30
2018-06-15T14:57:21.603Z,1.80
2018-06-15T14:59:49.809Z,2.00
2018-06-15T15:02:17.961Z,1.80
2018-06-15T15:04:46.171Z,2.03
2018-06-15T15:07:14.470Z,2.17
2018-06-15T15:09:42.917Z,1.80
2018-06-15T15:12:11.156Z,2.13
2018-06-15T15:14:39.304Z,1.80
2018-06-15T15:17:07.452Z,2.03
2018-06-15T15:19:35.589Z,2.60
2018-06-15T15:22:03.747Z,2.03
2018-06-15T15:24:31.887Z,2.23
2018-06-15T15:27:00.028Z,2.13
2018-06-15T15:29:28.377Z,2.43
2018-06-15T15:31:56.585Z,2.27
2018-06-15T15:34:24.742Z,2.07
2018-06-15T15:36:52.888Z,2.03
2018-06-15T15:39:21.076Z,2.40
2018-06-15T15:41:49.221Z,2.40
2018-06-15T15:44:17.424Z,4.80
2018-06-15T15:46:45.606Z,2.60
2018-06-15T15:49:13.804Z,2.63
2018-06-15T15:51:41.973Z,2.20
2018-06-15T15:54:10.138Z,2.30
2018-06-15T15:56:38.336Z,2.50
2018-06-15T15:59:06.487Z,1.93
2018-06-15T16:01:34.640Z,2.37
2018-06-15T16:04:02.893Z,2.20
2018-06-15T16:06:31.046Z,2.30
2018-06-15T16:08:59.202Z,1.80
2018-06-15T16:11:27.488Z,1.90
2018-06-15T16:13:55.651Z,1.80
2018-06-15T16:16:23.780Z,2.30
2018-06-15T16:18:51.928Z,2.03
2018-06-15T16:21:20.081Z,1.70
2018-06-15T16:23:48.224Z,1.90
2018-06-15T16:26:16.369Z,1.83
2018-06-15T16:28:45.203Z,2.00
2018-06-15T16:31:13.417Z,1.87
2018-06-15T16:33:42.002Z,1.90
2018-06-15T16:36:10.540Z,1.87
2018-06-15T16:38:38.713Z,2.07
2018-06-15T16:41:06.912Z,1.83
2018-06-15T16:43:35.144Z,2.30
2018-06-15T16:46:03.292Z,2.23
2018-06-15T16:48:31.514Z,1.80
2018-06-15T16:50:59.612Z,2.20
2018-06-15T16:53:28.635Z,2.10
2018-06-15T16:55:56.775Z,2.30
2018-06-15T16:58:24.933Z,1.90
2018-06-15T17:00:53.072Z,2.33
2018-06-15T17:03:21.237Z,1.80
2018-06-15T17:05:49.381Z,1.50
2018-06-15T17:08:17.599Z,1.63
2018-06-15T17:10:46.599Z,1.93
2018-06-15T17:13:14.604Z,1.70
2018-06-15T17:15:42.756Z,2.10
2018-06-15T17:18:10.913Z,2.30
2018-06-15T17:20:39.232Z,2.00
2018-06-15T17:23:07.375Z,1.70
2018-06-15T17:25:35.548Z,2.43
2018-06-15T17:28:03.452Z,2.40
2018-06-15T17:30:31.601Z,1.97
2018-06-15T17:32:59.751Z,2.27
2018-06-15T17:35:27.669Z,1.60
2018-06-15T17:37:55.822Z,1.93
2018-06-15T17:40:23.988Z,2.20
2018-06-15T17:42:52.141Z,2.07
2018-06-15T17:45:20.300Z,1.83
2018-06-15T17:47:48.572Z,2.10
2018-06-15T17:50:16.736Z,1.73
2018-06-15T17:52:44.899Z,1.93
2018-06-15T17:55:13.184Z,1.50
2018-06-15T17:57:41.369Z,1.73
2018-06-15T18:00:09.497Z,1.70
2018-06-15T18:02:37.674Z,1.70
2018-06-15T18:05:06.085Z,1.53
2018-06-15T18:07:34.246Z,1.80
2018-06-15T18:10:02.425Z,1.90
2018-06-15T18:12:30.569Z,2.00
2018-06-15T18:14:58.718Z,1.73
2018-06-15T18:17:26.662Z,1.80
2018-06-15T18:19:54.893Z,1.50
2018-06-15T18:22:23.197Z,1.40
2018-06-15T18:24:51.360Z,1.53
2018-06-15T18:27:19.505Z,1.50
2018-06-15T18:29:47.663Z,1.53
2018-06-15T18:32:15.824Z,1.50
2018-06-15T18:34:43.992Z,1.77
2018-06-15T18:37:12.140Z,1.23
2018-06-15T18:39:40.356Z,1.37
2018-06-15T18:42:08.464Z,1.40
2018-06-15T18:44:36.617Z,1.50
2018-06-15T18:47:04.765Z,1.60
2018-06-15T18:49:32.747Z,1.50
2018-06-15T18:52:00.909Z,1.53
2018-06-15T18:54:29.146Z,1.43
2018-06-15T18:56:57.248Z,1.40
2018-06-15T18:59:26.496Z,1.33
2018-06-15T19:01:54.768Z,1.30
2018-06-15T19:04:23.189Z,1.50
2018-06-15T19:06:51.324Z,1.73
2018-06-15T19:09:19.542Z,1.50
2018-06-15T19:11:47.887Z,1.40
2018-06-15T19:14:16.128Z,1.13
2018-06-15T19:16:44.332Z,1.03
2018-06-15T19:19:12.560Z,1.30
2018-06-15T19:21:40.864Z,1.10
2018-06-15T19:24:09.017Z,1.00
2018-06-15T19:26:42.185Z,0.93
2018-06-15T19:29:16.552Z,1.00
2018-06-15T19:31:44.679Z,0.87
2018-06-15T19:34:12.829Z,0.80
2018-06-15T19:36:41.033Z,1.00
2018-06-15T19:39:09.809Z,0.80
2018-06-15T19:41:38.010Z,0.80
2018-06-15T19:44:06.261Z,0.80
2018-06-15T19:46:34.840Z,0.83
2018-06-15T19:49:02.764Z,0.90
2018-06-15T19:51:30.940Z,0.73
2018-06-15T19:53:59.168Z,0.70
2018-06-15T19:56:27.413Z,0.70
2018-06-15T19:58:55.594Z,0.80
2018-06-15T20:01:23.758Z,0.70
2018-06-15T20:03:51.917Z,0.70
2018-06-15T20:06:20.248Z,0.87
2018-06-15T20:08:48.451Z,0.80
2018-06-15T20:11:16.753Z,0.60
2018-06-15T20:13:45.958Z,0.63
2018-06-15T20:16:14.188Z,0.70
2018-06-15T20:18:42.346Z,0.70
2018-06-15T20:21:10.710Z,0.80
2018-06-15T20:23:38.998Z,0.80
2018-06-15T20:26:07.211Z,0.80
2018-06-15T20:28:35.571Z,0.63
2018-06-15T20:31:04.123Z,0.70
2018-06-15T20:33:32.708Z,0.70
2018-06-15T20:36:00.887Z,0.60
2018-06-15T20:38:29.059Z,0.80
2018-06-15T20:40:57.163Z,0.70
2018-06-15T20:43:25.420Z,0.90
2018-06-15T20:45:53.751Z,0.70
2018-06-15T20:48:21.908Z,0.80
2018-06-15T20:50:50.244Z,0.80
2018-06-15T20:53:18.405Z,1.07
2018-06-15T20:55:46.648Z,0.90
2018-06-15T20:58:14.800Z,0.73
2018-06-15T21:00:42.956Z,0.77
2018-06-15T21:03:11.105Z,0.90
2018-06-15T21:05:39.523Z,1.00
2018-06-15T21:08:07.665Z,0.87
2018-06-15T21:10:36.329Z,0.90
2018-06-15T21:13:04.502Z,0.80
2018-06-15T21:15:32.649Z,1.00
2018-06-15T21:18:00.796Z,1.00
2018-06-15T21:20:28.980Z,1.00
2018-06-15T21:22:57.116Z,1.00
2018-06-15T21:25:25.280Z,1.00
2018-06-15T21:27:53.651Z,0.70
2018-06-15T21:30:21.881Z,0.87
2018-06-15T21:32:50.090Z,0.90
2018-06-15T21:35:18.336Z,0.80
2018-06-15T21:37:46.560Z,0.90
2018-06-15T21:40:14.480Z,0.90
2018-06-15T21:42:42.647Z,1.07
2018-06-15T21:45:10.873Z,1.07
2018-06-15T21:47:39.156Z,1.00
2018-06-15T21:50:07.412Z,1.00
2018-06-15T21:52:35.561Z,1.10
2018-06-15T21:55:03.831Z,1.10
2018-06-15T21:57:32.005Z,1.20
2018-06-15T22:00:00.297Z,1.37
2018-06-15T22:02:28.464Z,1.30
2018-06-15T22:04:56.637Z,1.00
2018-06-15T22:07:24.765Z,1.40
2018-06-15T22:09:52.913Z,1.10
2018-06-15T22:12:21.272Z,1.20
2018-06-15T22:14:49.429Z,1.27
2018-06-15T22:17:17.644Z,0.90
2018-06-15T22:19:45.805Z,0.90
2018-06-15T22:22:13.981Z,1.10
2018-06-15T22:24:42.152Z,1.70
2018-06-15T22:27:10.329Z,1.53
2018-06-15T22:29:38.481Z,1.60
2018-06-15T22:32:06.714Z,1.77
2018-06-15T22:34:35.032Z,1.33
2018-06-15T22:37:03.298Z,1.00
2018-06-15T22:39:31.512Z,1.20
2018-06-15T22:41:59.727Z,1.40
2018-06-15T22:44:27.956Z,1.30
2018-06-15T22:46:56.105Z,1.00
2018-06-15T22:49:24.270Z,1.30
2018-06-15T22:51:52.444Z,1.33
2018-06-15T22:54:20.643Z,1.20
2018-06-15T22:56:48.880Z,1.40
2018-06-15T22:59:17.105Z,1.20
2018-06-15T23:01:45.261Z,1.70
2018-06-15T23:04:13.412Z,1.63
2018-06-15T23:06:41.575Z,1.70
2018-06-15T23:09:11.218Z,1.60
2018-06-15T23:11:39.679Z,1.40
2018-06-15T23:14:07.825Z,1.70
2018-06-15T23:16:36.025Z,1.60
2018-06-15T23:19:04.179Z,1.97
2018-06-15T23:21:32.325Z,1.83
2018-06-15T23:24:00.563Z,1.60
2018-06-15T23:26:28.724Z,2.00
2018-06-15T23:28:57.075Z,1.60
2018-06-15T23:31:25.221Z,1.30
2018-06-15T23:33:53.382Z,1.40
2018-06-15T23:36:21.533Z,1.90
2018-06-15T23:38:49.696Z,1.40
2018-06-15T23:41:17.864Z,1.80
2018-06-15T23:43:46.016Z,1.60
2018-06-15T23:46:14.217Z,1.47
2018-06-15T23:48:42.400Z,1.80
2018-06-15T23:51:10.579Z,1.93
2018-06-15T23:53:38.732Z,1.70
2018-06-15T23:56:06.945Z,1.40
2018-06-15T23:58:35.100Z,1.33
